sensor_id;sensor_type;location;lat;lon;timestamp;pressure;altitude;pressure_sealevel;temperature;humidity
75681;BME280;64294;49.176;16.626;2023-04-03T00:01:15;99745.25;;;4.20;76.21
75681;BME280;64294;49.176;16.626;2023-04-03T00:03:41;99744.72;;;4.16;76.24
75681;BME280;64294;49.176;16.626;2023-04-03T00:06:07;99741.66;;;4.14;76.26
75681;BME280;64294;49.176;16.626;2023-04-03T00:08:34;99742.97;;;4.19;75.95
75681;BME280;64294;49.176;16.626;2023-04-03T00:11:01;99741.16;;;4.16;75.49
75681;BME280;64294;49.176;16.626;2023-04-03T00:13:26;99744.63;;;4.11;76.20
75681;BME280;64294;49.176;16.626;2023-04-03T00:15:52;99749.59;;;4.07;75.53
75681;BME280;64294;49.176;16.626;2023-04-03T00:18:18;99744.53;;;4.05;75.79
75681;BME280;64294;49.176;16.626;2023-04-03T00:20:43;99741.19;;;4.01;76.20
75681;BME280;64294;49.176;16.626;2023-04-03T00:23:09;99743.88;;;3.95;75.81
75681;BME280;64294;49.176;16.626;2023-04-03T00:25:35;99750.00;;;4.00;76.03
75681;BME280;64294;49.176;16.626;2023-04-03T00:28:01;99747.50;;;4.02;75.52
75681;BME280;64294;49.176;16.626;2023-04-03T00:30:27;99755.78;;;3.96;75.63
75681;BME280;64294;49.176;16.626;2023-04-03T00:32:53;99750.91;;;3.91;75.93
75681;BME280;64294;49.176;16.626;2023-04-03T00:35:20;99745.97;;;4.01;75.81
75681;BME280;64294;49.176;16.626;2023-04-03T00:37:46;99751.75;;;3.97;75.78
75681;BME280;64294;49.176;16.626;2023-04-03T00:40:14;99746.19;;;3.97;76.13
75681;BME280;64294;49.176;16.626;2023-04-03T00:42:41;99747.22;;;4.00;75.84
75681;BME280;64294;49.176;16.626;2023-04-03T00:45:51;99748.97;;;3.97;76.00
75681;BME280;64294;49.176;16.626;2023-04-03T00:48:39;99756.75;;;3.93;75.13
75681;BME280;64294;49.176;16.626;2023-04-03T00:51:07;99755.97;;;3.92;75.55
75681;BME280;64294;49.176;16.626;2023-04-03T00:53:41;99746.38;;;3.93;75.36
75681;BME280;64294;49.176;16.626;2023-04-03T00:56:08;99755.50;;;3.94;75.44
75681;BME280;64294;49.176;16.626;2023-04-03T01:01:23;99755.97;;;3.92;75.52
75681;BME280;64294;49.176;16.626;2023-04-03T01:03:49;99746.94;;;3.83;75.27
75681;BME280;64294;49.176;16.626;2023-04-03T01:06:21;99747.53;;;3.87;76.04
75681;BME280;64294;49.176;16.626;2023-04-03T01:08:49;99747.25;;;3.85;75.25
75681;BME280;64294;49.176;16.626;2023-04-03T01:11:15;99746.47;;;3.84;75.20
75681;BME280;64294;49.176;16.626;2023-04-03T01:13:41;99751.34;;;3.89;74.79
75681;BME280;64294;49.176;16.626;2023-04-03T01:16:07;99753.28;;;3.83;75.70
75681;BME280;64294;49.176;16.626;2023-04-03T01:18:34;99758.00;;;3.77;75.30
75681;BME280;64294;49.176;16.626;2023-04-03T01:21:30;99754.81;;;3.84;75.29
75681;BME280;64294;49.176;16.626;2023-04-03T01:24:15;99760.19;;;3.88;75.79
75681;BME280;64294;49.176;16.626;2023-04-03T01:26:45;99762.88;;;3.82;75.82
75681;BME280;64294;49.176;16.626;2023-04-03T01:29:10;99755.09;;;3.86;75.38
75681;BME280;64294;49.176;16.626;2023-04-03T01:31:58;99764.41;;;3.83;75.60
75681;BME280;64294;49.176;16.626;2023-04-03T01:34:24;99758.06;;;3.83;75.74
75681;BME280;64294;49.176;16.626;2023-04-03T01:36:50;99762.09;;;3.82;76.11
75681;BME280;64294;49.176;16.626;2023-04-03T01:39:16;99761.34;;;3.81;75.94
75681;BME280;64294;49.176;16.626;2023-04-03T01:41:42;99765.09;;;3.78;76.33
75681;BME280;64294;49.176;16.626;2023-04-03T01:44:07;99762.31;;;3.93;75.81
75681;BME280;64294;49.176;16.626;2023-04-03T01:46:33;99761.72;;;3.89;75.49
75681;BME280;64294;49.176;16.626;2023-04-03T01:48:58;99763.75;;;3.74;75.78
75681;BME280;64294;49.176;16.626;2023-04-03T01:51:24;99767.38;;;3.80;75.89
75681;BME280;64294;49.176;16.626;2023-04-03T01:53:49;99766.34;;;3.77;76.56
75681;BME280;64294;49.176;16.626;2023-04-03T01:56:16;99768.22;;;3.71;76.62
75681;BME280;64294;49.176;16.626;2023-04-03T01:58:42;99765.16;;;3.69;76.38
75681;BME280;64294;49.176;16.626;2023-04-03T02:01:07;99769.69;;;3.67;76.44
75681;BME280;64294;49.176;16.626;2023-04-03T02:03:32;99766.41;;;3.68;75.90
75681;BME280;64294;49.176;16.626;2023-04-03T02:05:58;99761.44;;;3.72;76.76
75681;BME280;64294;49.176;16.626;2023-04-03T02:08:23;99770.56;;;3.73;77.18
75681;BME280;64294;49.176;16.626;2023-04-03T02:10:50;99772.94;;;3.65;76.62
75681;BME280;64294;49.176;16.626;2023-04-03T02:13:16;99773.22;;;3.67;76.12
75681;BME280;64294;49.176;16.626;2023-04-03T02:15:42;99764.22;;;3.72;76.22
75681;BME280;64294;49.176;16.626;2023-04-03T02:18:07;99770.44;;;3.67;76.80
75681;BME280;64294;49.176;16.626;2023-04-03T02:20:33;99764.41;;;3.69;76.22
75681;BME280;64294;49.176;16.626;2023-04-03T02:22:59;99765.38;;;3.65;75.79
75681;BME280;64294;49.176;16.626;2023-04-03T02:25:25;99770.34;;;3.61;76.54
75681;BME280;64294;49.176;16.626;2023-04-03T02:27:50;99770.06;;;3.59;77.11
75681;BME280;64294;49.176;16.626;2023-04-03T02:30:15;99772.84;;;3.59;77.28
75681;BME280;64294;49.176;16.626;2023-04-03T02:32:42;99765.94;;;3.55;77.42
75681;BME280;64294;49.176;16.626;2023-04-03T02:35:08;99768.53;;;3.58;77.39
75681;BME280;64294;49.176;16.626;2023-04-03T02:37:34;99769.97;;;3.54;76.43
75681;BME280;64294;49.176;16.626;2023-04-03T02:39:59;99764.41;;;3.54;76.92
75681;BME280;64294;49.176;16.626;2023-04-03T02:42:25;99765.56;;;3.62;76.67
75681;BME280;64294;49.176;16.626;2023-04-03T02:44:51;99767.19;;;3.54;76.94
75681;BME280;64294;49.176;16.626;2023-04-03T02:47:16;99766.88;;;3.52;76.49
75681;BME280;64294;49.176;16.626;2023-04-03T02:49:42;99770.63;;;3.49;75.92
75681;BME280;64294;49.176;16.626;2023-04-03T02:52:10;99773.97;;;3.53;75.53
75681;BME280;64294;49.176;16.626;2023-04-03T02:54:35;99765.06;;;3.49;75.54
75681;BME280;64294;49.176;16.626;2023-04-03T02:57:01;99770.44;;;3.52;75.37
75681;BME280;64294;49.176;16.626;2023-04-03T02:59:26;99779.63;;;3.44;76.30
75681;BME280;64294;49.176;16.626;2023-04-03T03:01:51;99780.41;;;3.44;75.31
75681;BME280;64294;49.176;16.626;2023-04-03T03:04:17;99794.78;;;3.43;75.67
75681;BME280;64294;49.176;16.626;2023-04-03T03:06:42;99791.13;;;3.37;75.29
75681;BME280;64294;49.176;16.626;2023-04-03T03:09:08;99787.47;;;3.30;76.11
75681;BME280;64294;49.176;16.626;2023-04-03T03:11:33;99787.94;;;3.29;75.49
75681;BME280;64294;49.176;16.626;2023-04-03T03:13:59;99792.16;;;3.24;75.75
75681;BME280;64294;49.176;16.626;2023-04-03T03:16:24;99791.09;;;3.22;75.75
75681;BME280;64294;49.176;16.626;2023-04-03T03:18:50;99790.03;;;3.19;75.39
75681;BME280;64294;49.176;16.626;2023-04-03T03:21:15;99797.13;;;3.20;75.61
75681;BME280;64294;49.176;16.626;2023-04-03T03:23:41;99787.25;;;3.19;75.68
75681;BME280;64294;49.176;16.626;2023-04-03T03:26:09;99795.25;;;3.02;75.24
75681;BME280;64294;49.176;16.626;2023-04-03T03:28:36;99787.69;;;3.03;76.11
75681;BME280;64294;49.176;16.626;2023-04-03T03:31:02;99792.28;;;3.06;75.77
75681;BME280;64294;49.176;16.626;2023-04-03T03:33:27;99782.91;;;3.03;76.07
75681;BME280;64294;49.176;16.626;2023-04-03T03:35:53;99787.88;;;2.99;76.47
75681;BME280;64294;49.176;16.626;2023-04-03T03:38:19;99791.19;;;2.89;75.64
75681;BME280;64294;49.176;16.626;2023-04-03T03:40:47;99790.78;;;2.81;75.37
75681;BME280;64294;49.176;16.626;2023-04-03T03:43:12;99793.25;;;2.79;76.02
75681;BME280;64294;49.176;16.626;2023-04-03T03:45:38;99796.38;;;2.72;75.89
75681;BME280;64294;49.176;16.626;2023-04-03T03:48:03;99802.16;;;2.59;76.42
75681;BME280;64294;49.176;16.626;2023-04-03T03:50:29;99800.69;;;2.40;77.57
75681;BME280;64294;49.176;16.626;2023-04-03T03:52:55;99808.03;;;2.19;78.24
75681;BME280;64294;49.176;16.626;2023-04-03T03:55:20;99803.13;;;2.14;78.81
75681;BME280;64294;49.176;16.626;2023-04-03T03:57:46;99807.94;;;2.04;78.50
75681;BME280;64294;49.176;16.626;2023-04-03T04:00:11;99809.19;;;1.94;78.92
75681;BME280;64294;49.176;16.626;2023-04-03T04:02:37;99811.03;;;2.06;80.68
75681;BME280;64294;49.176;16.626;2023-04-03T04:05:02;99807.97;;;1.95;81.76
75681;BME280;64294;49.176;16.626;2023-04-03T04:07:28;99809.06;;;1.89;79.64
75681;BME280;64294;49.176;16.626;2023-04-03T04:09:54;99802.00;;;1.78;79.44
75681;BME280;64294;49.176;16.626;2023-04-03T04:12:20;99804.34;;;1.71;80.13
75681;BME280;64294;49.176;16.626;2023-04-03T04:14:46;99807.09;;;1.71;80.07
75681;BME280;64294;49.176;16.626;2023-04-03T04:17:12;99816.34;;;1.68;80.05
75681;BME280;64294;49.176;16.626;2023-04-03T04:19:38;99810.66;;;1.71;80.13
75681;BME280;64294;49.176;16.626;2023-04-03T04:22:03;99804.63;;;1.73;79.74
75681;BME280;64294;49.176;16.626;2023-04-03T04:24:29;99806.47;;;1.76;79.20
75681;BME280;64294;49.176;16.626;2023-04-03T04:26:54;99798.94;;;1.76;79.44
75681;BME280;64294;49.176;16.626;2023-04-03T04:29:20;99810.78;;;1.86;80.19
75681;BME280;64294;49.176;16.626;2023-04-03T04:31:45;99807.53;;;1.88;78.51
75681;BME280;64294;49.176;16.626;2023-04-03T04:34:11;99804.13;;;1.93;77.59
75681;BME280;64294;49.176;16.626;2023-04-03T04:36:38;99819.81;;;1.96;77.42
75681;BME280;64294;49.176;16.626;2023-04-03T04:39:03;99828.91;;;2.05;77.70
75681;BME280;64294;49.176;16.626;2023-04-03T04:41:28;99832.28;;;2.00;76.54
75681;BME280;64294;49.176;16.626;2023-04-03T04:43:54;99835.53;;;1.99;76.97
75681;BME280;64294;49.176;16.626;2023-04-03T04:46:20;99830.44;;;2.06;76.40
75681;BME280;64294;49.176;16.626;2023-04-03T04:48:45;99846.75;;;2.04;76.25
75681;BME280;64294;49.176;16.626;2023-04-03T04:51:11;99848.91;;;2.09;75.26
75681;BME280;64294;49.176;16.626;2023-04-03T04:53:37;99845.50;;;2.15;75.23
75681;BME280;64294;49.176;16.626;2023-04-03T04:56:02;99851.63;;;2.19;75.33
75681;BME280;64294;49.176;16.626;2023-04-03T04:58:28;99853.78;;;2.24;74.42
75681;BME280;64294;49.176;16.626;2023-04-03T05:01:05;99862.41;;;2.26;74.85
75681;BME280;64294;49.176;16.626;2023-04-03T05:03:31;99865.44;;;2.37;74.03
75681;BME280;64294;49.176;16.626;2023-04-03T05:05:57;99870.41;;;2.33;73.82
75681;BME280;64294;49.176;16.626;2023-04-03T05:08:22;99860.97;;;2.39;73.57
75681;BME280;64294;49.176;16.626;2023-04-03T05:10:53;99872.69;;;2.34;73.93
75681;BME280;64294;49.176;16.626;2023-04-03T05:13:19;99880.53;;;2.36;73.06
75681;BME280;64294;49.176;16.626;2023-04-03T05:15:45;99880.22;;;2.43;73.91
75681;BME280;64294;49.176;16.626;2023-04-03T05:18:10;99884.84;;;2.46;73.46
75681;BME280;64294;49.176;16.626;2023-04-03T05:20:36;99878.34;;;2.49;72.66
75681;BME280;64294;49.176;16.626;2023-04-03T05:23:02;99883.44;;;2.41;72.79
75681;BME280;64294;49.176;16.626;2023-04-03T05:25:28;99887.91;;;2.48;72.56
75681;BME280;64294;49.176;16.626;2023-04-03T05:27:56;99885.44;;;2.50;72.24
75681;BME280;64294;49.176;16.626;2023-04-03T05:30:21;99892.75;;;2.71;71.37
75681;BME280;64294;49.176;16.626;2023-04-03T05:32:47;99897.50;;;2.80;70.76
75681;BME280;64294;49.176;16.626;2023-04-03T05:35:13;99903.59;;;2.93;70.51
75681;BME280;64294;49.176;16.626;2023-04-03T05:37:38;99904.34;;;2.94;69.28
75681;BME280;64294;49.176;16.626;2023-04-03T05:40:05;99897.22;;;3.02;69.37
75681;BME280;64294;49.176;16.626;2023-04-03T05:42:30;99901.72;;;3.23;68.13
75681;BME280;64294;49.176;16.626;2023-04-03T05:44:56;99903.50;;;3.36;67.73
75681;BME280;64294;49.176;16.626;2023-04-03T05:47:21;99897.50;;;3.52;67.03
75681;BME280;64294;49.176;16.626;2023-04-03T05:49:47;99907.97;;;3.57;66.70
75681;BME280;64294;49.176;16.626;2023-04-03T05:52:21;99914.22;;;3.67;66.21
75681;BME280;64294;49.176;16.626;2023-04-03T05:54:47;99909.50;;;3.97;66.75
75681;BME280;64294;49.176;16.626;2023-04-03T05:57:14;99910.00;;;4.10;64.06
75681;BME280;64294;49.176;16.626;2023-04-03T05:59:42;99924.38;;;4.38;62.80
75681;BME280;64294;49.176;16.626;2023-04-03T06:02:10;99925.63;;;4.51;63.62
75681;BME280;64294;49.176;16.626;2023-04-03T06:04:36;99912.47;;;4.67;62.87
75681;BME280;64294;49.176;16.626;2023-04-03T06:07:01;99928.75;;;4.74;61.54
75681;BME280;64294;49.176;16.626;2023-04-03T06:09:28;99930.50;;;4.56;61.57
75681;BME280;64294;49.176;16.626;2023-04-03T06:11:56;99935.94;;;4.95;61.23
75681;BME280;64294;49.176;16.626;2023-04-03T06:14:24;99931.44;;;4.83;60.54
75681;BME280;64294;49.176;16.626;2023-04-03T06:16:50;99936.97;;;4.98;60.92
75681;BME280;64294;49.176;16.626;2023-04-03T06:19:15;99938.59;;;5.04;60.03
75681;BME280;64294;49.176;16.626;2023-04-03T06:21:41;99939.63;;;5.22;59.91
75681;BME280;64294;49.176;16.626;2023-04-03T06:24:07;99944.34;;;5.56;59.15
75681;BME280;64294;49.176;16.626;2023-04-03T06:26:33;99945.22;;;6.03;57.72
75681;BME280;64294;49.176;16.626;2023-04-03T06:28:59;99942.22;;;6.64;55.98
75681;BME280;64294;49.176;16.626;2023-04-03T06:31:24;99938.75;;;7.54;52.74
75681;BME280;64294;49.176;16.626;2023-04-03T06:33:50;99935.47;;;8.43;50.10
75681;BME280;64294;49.176;16.626;2023-04-03T06:36:18;99941.47;;;9.48;47.45
75681;BME280;64294;49.176;16.626;2023-04-03T06:38:45;99932.88;;;11.30;41.75
75681;BME280;64294;49.176;16.626;2023-04-03T06:41:11;99935.22;;;12.50;38.43
75681;BME280;64294;49.176;16.626;2023-04-03T06:43:36;99943.00;;;14.34;34.60
75681;BME280;64294;49.176;16.626;2023-04-03T06:46:02;99941.66;;;15.32;33.31
75681;BME280;64294;49.176;16.626;2023-04-03T06:48:27;99946.56;;;16.47;30.22
75681;BME280;64294;49.176;16.626;2023-04-03T06:50:53;99952.72;;;17.27;28.90
75681;BME280;64294;49.176;16.626;2023-04-03T06:53:19;99952.72;;;16.89;29.01
75681;BME280;64294;49.176;16.626;2023-04-03T06:55:44;99949.28;;;14.06;32.83
75681;BME280;64294;49.176;16.626;2023-04-03T06:58:10;99954.63;;;13.30;35.07
75681;BME280;64294;49.176;16.626;2023-04-03T07:00:35;99965.34;;;11.31;37.83
75681;BME280;64294;49.176;16.626;2023-04-03T07:03:01;99960.09;;;9.57;40.75
75681;BME280;64294;49.176;16.626;2023-04-03T07:05:26;99963.75;;;8.68;44.06
75681;BME280;64294;49.176;16.626;2023-04-03T07:07:52;99963.78;;;8.57;44.15
75681;BME280;64294;49.176;16.626;2023-04-03T07:10:18;99972.81;;;8.18;45.85
75681;BME280;64294;49.176;16.626;2023-04-03T07:12:44;99977.09;;;9.87;41.33
75681;BME280;64294;49.176;16.626;2023-04-03T07:15:10;99972.97;;;14.03;34.45
75681;BME280;64294;49.176;16.626;2023-04-03T07:17:35;99968.75;;;17.78;28.34
75681;BME280;64294;49.176;16.626;2023-04-03T07:20:02;99966.28;;;17.90;26.44
75681;BME280;64294;49.176;16.626;2023-04-03T07:22:31;99978.28;;;19.19;25.44
75681;BME280;64294;49.176;16.626;2023-04-03T07:24:57;99981.16;;;19.61;24.62
75681;BME280;64294;49.176;16.626;2023-04-03T07:27:24;99975.28;;;20.72;22.58
75681;BME280;64294;49.176;16.626;2023-04-03T07:29:50;99971.91;;;20.93;22.34
75681;BME280;64294;49.176;16.626;2023-04-03T07:32:16;99975.69;;;20.96;22.25
75681;BME280;64294;49.176;16.626;2023-04-03T07:34:41;99987.22;;;20.61;21.68
75681;BME280;64294;49.176;16.626;2023-04-03T07:37:07;99980.66;;;20.41;21.71
75681;BME280;64294;49.176;16.626;2023-04-03T07:39:34;99991.28;;;17.92;24.89
75681;BME280;64294;49.176;16.626;2023-04-03T07:42:00;100000.81;;;15.43;27.79
75681;BME280;64294;49.176;16.626;2023-04-03T07:44:25;99995.84;;;12.37;32.05
75681;BME280;64294;49.176;16.626;2023-04-03T07:46:51;100002.28;;;11.21;34.59
75681;BME280;64294;49.176;16.626;2023-04-03T07:49:17;100004.72;;;11.06;35.71
75681;BME280;64294;49.176;16.626;2023-04-03T07:51:44;100007.25;;;10.33;36.55
75681;BME280;64294;49.176;16.626;2023-04-03T07:54:09;100014.44;;;10.70;36.79
75681;BME280;64294;49.176;16.626;2023-04-03T07:56:35;100006.94;;;10.48;35.56
75681;BME280;64294;49.176;16.626;2023-04-03T07:59:01;100016.16;;;9.74;37.68
75681;BME280;64294;49.176;16.626;2023-04-03T08:01:26;100019.03;;;9.40;39.10
75681;BME280;64294;49.176;16.626;2023-04-03T08:03:52;100017.53;;;9.33;39.54
75681;BME280;64294;49.176;16.626;2023-04-03T08:06:17;100018.53;;;8.58;40.69
75681;BME280;64294;49.176;16.626;2023-04-03T08:08:43;100013.06;;;8.26;41.16
75681;BME280;64294;49.176;16.626;2023-04-03T08:11:09;99998.22;;;7.49;42.43
75681;BME280;64294;49.176;16.626;2023-04-03T08:13:36;100017.34;;;7.19;43.84
75681;BME280;64294;49.176;16.626;2023-04-03T08:16:16;100014.59;;;7.25;44.62
75681;BME280;64294;49.176;16.626;2023-04-03T08:18:42;100010.06;;;7.27;43.45
75681;BME280;64294;49.176;16.626;2023-04-03T08:21:09;100009.69;;;6.83;42.85
75681;BME280;64294;49.176;16.626;2023-04-03T08:23:35;100010.16;;;6.76;43.30
75681;BME280;64294;49.176;16.626;2023-04-03T08:26:12;100011.06;;;6.41;44.07
75681;BME280;64294;49.176;16.626;2023-04-03T08:28:38;100019.00;;;6.22;46.41
75681;BME280;64294;49.176;16.626;2023-04-03T08:31:06;100013.84;;;6.15;45.43
75681;BME280;64294;49.176;16.626;2023-04-03T08:33:33;100011.56;;;6.14;45.41
75681;BME280;64294;49.176;16.626;2023-04-03T08:35:59;100021.25;;;6.18;44.53
75681;BME280;64294;49.176;16.626;2023-04-03T08:38:25;100020.53;;;6.23;44.24
75681;BME280;64294;49.176;16.626;2023-04-03T08:44:31;100028.19;;;6.28;44.97
75681;BME280;64294;49.176;16.626;2023-04-03T08:49:42;100021.38;;;6.09;46.03
75681;BME280;64294;49.176;16.626;2023-04-03T08:52:18;100018.44;;;5.77;46.21
75681;BME280;64294;49.176;16.626;2023-04-03T08:55:01;100027.59;;;5.98;43.80
75681;BME280;64294;49.176;16.626;2023-04-03T08:57:35;100008.44;;;6.12;43.52
75681;BME280;64294;49.176;16.626;2023-04-03T09:00:05;100026.97;;;6.55;43.80
75681;BME280;64294;49.176;16.626;2023-04-03T09:02:35;100020.78;;;6.25;43.35
75681;BME280;64294;49.176;16.626;2023-04-03T09:05:13;100017.50;;;6.73;43.69
75681;BME280;64294;49.176;16.626;2023-04-03T09:07:43;100026.56;;;6.94;42.91
75681;BME280;64294;49.176;16.626;2023-04-03T09:10:12;100025.66;;;8.59;40.28
75681;BME280;64294;49.176;16.626;2023-04-03T09:12:42;100023.47;;;10.92;35.12
75681;BME280;64294;49.176;16.626;2023-04-03T09:15:22;100028.94;;;13.07;30.98
75681;BME280;64294;49.176;16.626;2023-04-03T09:17:52;100019.91;;;13.40;29.18
75681;BME280;64294;49.176;16.626;2023-04-03T09:22:57;100018.91;;;11.74;31.66
75681;BME280;64294;49.176;16.626;2023-04-03T09:25:26;100034.06;;;10.34;32.81
75681;BME280;64294;49.176;16.626;2023-04-03T09:27:52;100023.66;;;9.32;34.62
75681;BME280;64294;49.176;16.626;2023-04-03T09:30:23;100031.72;;;11.20;32.63
75681;BME280;64294;49.176;16.626;2023-04-03T09:32:54;100024.28;;;14.07;28.23
75681;BME280;64294;49.176;16.626;2023-04-03T09:35:29;100027.47;;;14.85;27.74
75681;BME280;64294;49.176;16.626;2023-04-03T09:40:37;100025.84;;;17.50;23.57
75681;BME280;64294;49.176;16.626;2023-04-03T09:43:29;100037.09;;;14.35;25.82
75681;BME280;64294;49.176;16.626;2023-04-03T09:45:55;100032.19;;;13.11;28.43
75681;BME280;64294;49.176;16.626;2023-04-03T09:48:24;100028.78;;;12.67;28.56
75681;BME280;64294;49.176;16.626;2023-04-03T09:53:32;100034.28;;;10.47;31.90
75681;BME280;64294;49.176;16.626;2023-04-03T09:56:00;100042.84;;;10.02;32.20
75681;BME280;64294;49.176;16.626;2023-04-03T09:58:37;100038.66;;;9.46;33.87
75681;BME280;64294;49.176;16.626;2023-04-03T10:01:03;100025.66;;;9.54;35.08
75681;BME280;64294;49.176;16.626;2023-04-03T10:03:34;100036.38;;;10.36;34.13
75681;BME280;64294;49.176;16.626;2023-04-03T10:06:04;100036.38;;;11.12;32.36
75681;BME280;64294;49.176;16.626;2023-04-03T10:09:02;100032.09;;;11.60;29.71
75681;BME280;64294;49.176;16.626;2023-04-03T10:11:29;100037.63;;;11.71;29.82
75681;BME280;64294;49.176;16.626;2023-04-03T10:13:57;100047.25;;;11.27;30.11
75681;BME280;64294;49.176;16.626;2023-04-03T10:16:34;100036.22;;;12.83;29.35
75681;BME280;64294;49.176;16.626;2023-04-03T10:21:59;100037.94;;;11.08;29.86
75681;BME280;64294;49.176;16.626;2023-04-03T10:24:39;100038.47;;;10.71;30.52
75681;BME280;64294;49.176;16.626;2023-04-03T10:27:14;100036.28;;;14.61;27.10
75681;BME280;64294;49.176;16.626;2023-04-03T10:29:55;100019.19;;;15.50;25.30
75681;BME280;64294;49.176;16.626;2023-04-03T10:35:11;100029.34;;;12.22;29.08
75681;BME280;64294;49.176;16.626;2023-04-03T10:37:52;100026.69;;;11.38;28.96
75681;BME280;64294;49.176;16.626;2023-04-03T10:40:34;100032.69;;;12.02;28.65
75681;BME280;64294;49.176;16.626;2023-04-03T10:48:40;100027.53;;;11.57;29.59
75681;BME280;64294;49.176;16.626;2023-04-03T10:51:45;100018.09;;;11.55;30.26
75681;BME280;64294;49.176;16.626;2023-04-03T10:54:34;100021.09;;;11.87;29.21
75681;BME280;64294;49.176;16.626;2023-04-03T10:57:08;100029.31;;;11.30;29.70
75681;BME280;64294;49.176;16.626;2023-04-03T10:59:48;100025.13;;;11.12;30.82
75681;BME280;64294;49.176;16.626;2023-04-03T11:05:53;100022.22;;;12.59;28.08
75681;BME280;64294;49.176;16.626;2023-04-03T11:07:51;100028.47;;;12.52;29.55
75681;BME280;64294;49.176;16.626;2023-04-03T11:10:25;100027.22;;;11.61;29.76
75681;BME280;64294;49.176;16.626;2023-04-03T11:13:17;100034.31;;;11.43;28.85
75681;BME280;64294;49.176;16.626;2023-04-03T11:15:43;100029.78;;;10.69;31.30
75681;BME280;64294;49.176;16.626;2023-04-03T11:18:39;100033.78;;;10.38;30.80
75681;BME280;64294;49.176;16.626;2023-04-03T11:21:16;100019.41;;;10.52;31.05
75681;BME280;64294;49.176;16.626;2023-04-03T11:23:53;100033.59;;;10.30;31.35
75681;BME280;64294;49.176;16.626;2023-04-03T11:26:31;100017.34;;;10.06;32.96
75681;BME280;64294;49.176;16.626;2023-04-03T11:29:06;100019.50;;;9.61;32.63
75681;BME280;64294;49.176;16.626;2023-04-03T11:36:48;100025.69;;;8.87;33.81
75681;BME280;64294;49.176;16.626;2023-04-03T11:39:24;100020.09;;;8.87;33.46
75681;BME280;64294;49.176;16.626;2023-04-03T11:41:51;100007.34;;;8.97;32.92
75681;BME280;64294;49.176;16.626;2023-04-03T11:44:43;100012.19;;;9.07;33.30
75681;BME280;64294;49.176;16.626;2023-04-03T11:47:11;100008.88;;;8.98;33.68
75681;BME280;64294;49.176;16.626;2023-04-03T11:50:46;100013.91;;;8.38;34.61
75681;BME280;64294;49.176;16.626;2023-04-03T12:05:57;100003.22;;;8.53;35.15
75681;BME280;64294;49.176;16.626;2023-04-03T12:24:04;99990.41;;;8.18;33.61
75681;BME280;64294;49.176;16.626;2023-04-03T12:26:38;99982.41;;;7.95;33.85
75681;BME280;64294;49.176;16.626;2023-04-03T12:29:23;99991.00;;;7.80;34.25
75681;BME280;64294;49.176;16.626;2023-04-03T12:32:22;99989.00;;;8.85;34.84
75681;BME280;64294;49.176;16.626;2023-04-03T12:46:20;99987.69;;;8.52;34.05
75681;BME280;64294;49.176;16.626;2023-04-03T12:48:55;99991.25;;;8.53;32.95
75681;BME280;64294;49.176;16.626;2023-04-03T12:51:38;99989.22;;;8.53;33.36
75681;BME280;64294;49.176;16.626;2023-04-03T12:54:30;99985.69;;;9.14;34.20
75681;BME280;64294;49.176;16.626;2023-04-03T12:57:17;99987.41;;;9.39;32.60
75681;BME280;64294;49.176;16.626;2023-04-03T12:59:44;99995.88;;;9.17;33.16
75681;BME280;64294;49.176;16.626;2023-04-03T13:02:28;99980.34;;;8.83;33.11
75681;BME280;64294;49.176;16.626;2023-04-03T13:04:57;99988.94;;;9.29;34.07
75681;BME280;64294;49.176;16.626;2023-04-03T13:07:29;99982.63;;;9.12;33.20
75681;BME280;64294;49.176;16.626;2023-04-03T13:09:58;99983.13;;;8.88;33.33
75681;BME280;64294;49.176;16.626;2023-04-03T13:12:25;99987.69;;;8.52;33.41
75681;BME280;64294;49.176;16.626;2023-04-03T13:14:56;99984.25;;;8.14;34.66
75681;BME280;64294;49.176;16.626;2023-04-03T13:17:24;99970.91;;;8.80;34.90
75681;BME280;64294;49.176;16.626;2023-04-03T13:19:49;99980.06;;;9.03;34.01
75681;BME280;64294;49.176;16.626;2023-04-03T13:22:30;99970.09;;;8.35;34.95
75681;BME280;64294;49.176;16.626;2023-04-03T13:24:59;99969.22;;;8.06;35.08
75681;BME280;64294;49.176;16.626;2023-04-03T13:27:26;99981.91;;;7.90;36.01
75681;BME280;64294;49.176;16.626;2023-04-03T13:29:54;99986.31;;;7.60;35.59
75681;BME280;64294;49.176;16.626;2023-04-03T13:32:24;99981.97;;;7.53;36.32
75681;BME280;64294;49.176;16.626;2023-04-03T13:34:52;99981.81;;;7.68;34.97
75681;BME280;64294;49.176;16.626;2023-04-03T13:42:32;99970.06;;;8.29;34.01
75681;BME280;64294;49.176;16.626;2023-04-03T13:47:46;99964.72;;;7.60;34.95
75681;BME280;64294;49.176;16.626;2023-04-03T13:50:16;99963.94;;;7.54;34.06
75681;BME280;64294;49.176;16.626;2023-04-03T13:52:48;99962.09;;;8.00;34.77
75681;BME280;64294;49.176;16.626;2023-04-03T13:55:30;99961.84;;;8.03;34.66
75681;BME280;64294;49.176;16.626;2023-04-03T13:57:59;99958.09;;;8.23;34.63
75681;BME280;64294;49.176;16.626;2023-04-03T14:03:30;99969.94;;;7.96;34.53
75681;BME280;64294;49.176;16.626;2023-04-03T14:05:55;99976.56;;;7.98;35.43
75681;BME280;64294;49.176;16.626;2023-04-03T14:08:21;99972.25;;;7.97;34.72
75681;BME280;64294;49.176;16.626;2023-04-03T14:10:48;99980.81;;;7.77;33.33
75681;BME280;64294;49.176;16.626;2023-04-03T14:13:16;99976.22;;;7.68;34.48
75681;BME280;64294;49.176;16.626;2023-04-03T14:15:43;99973.00;;;7.98;35.48
75681;BME280;64294;49.176;16.626;2023-04-03T14:18:13;99977.94;;;8.19;34.80
75681;BME280;64294;49.176;16.626;2023-04-03T14:20:39;99966.13;;;7.87;35.86
75681;BME280;64294;49.176;16.626;2023-04-03T14:23:04;99978.13;;;8.05;34.74
75681;BME280;64294;49.176;16.626;2023-04-03T14:25:30;99970.19;;;7.86;34.82
75681;BME280;64294;49.176;16.626;2023-04-03T14:27:55;99963.50;;;7.67;34.07
75681;BME280;64294;49.176;16.626;2023-04-03T14:30:27;99968.00;;;7.53;35.43
75681;BME280;64294;49.176;16.626;2023-04-03T14:32:54;99969.00;;;7.50;35.27